Time;durP1;ratioP1;P1;durP2;ratioP2;P2;SDS_P1;SDS_P2;PMS_P1;PMS_P2;Temp;Humidity;BMP_temperature;BMP_pressure;BME280_temperature;BME280_humidity;BME280_pressure;Samples;Min_cycle;Max_cycle;Signal;HPM_P1;HPM_P2
2022/09/11 00:00:49;;;;;;;2.90;1.67;;;;;;;13.98;100.00;96580.56;5091607;28;20218;-73
2022/09/11 00:03:17;;;;;;;2.87;1.73;;;;;;;13.91;100.00;96574.50;5101100;28;20211;-73
2022/09/11 00:05:44;;;;;;;2.27;1.50;;;;;;;13.90;100.00;96578.25;5115215;28;20357;-73
2022/09/11 00:08:13;;;;;;;4.40;1.90;;;;;;;13.93;100.00;96570.47;5115495;27;20196;-73
2022/09/11 00:10:42;;;;;;;2.97;1.50;;;;;;;14.00;100.00;96570.28;5114739;27;20211;-74
2022/09/11 00:13:11;;;;;;;2.87;1.67;;;;;;;14.01;100.00;96574.66;5115017;28;20208;-74
2022/09/11 00:15:40;;;;;;;3.20;1.70;;;;;;;14.02;100.00;96579.03;5096878;28;20218;-74
2022/09/11 00:18:07;;;;;;;1.97;1.60;;;;;;;14.02;100.00;96570.88;5092411;28;20215;-74
2022/09/11 00:20:36;;;;;;;6.00;1.60;;;;;;;13.96;100.00;96577.28;5118398;28;20230;-73
2022/09/11 00:23:04;;;;;;;2.90;1.50;;;;;;;13.85;100.00;96575.47;5096642;28;20195;-73
2022/09/11 00:25:34;;;;;;;1.70;1.60;;;;;;;13.76;100.00;96574.22;5104750;27;20215;-73
2022/09/11 00:28:01;;;;;;;1.83;1.70;;;;;;;13.82;100.00;96584.94;5126275;27;20291;-74
2022/09/11 00:30:30;;;;;;;4.80;2.10;;;;;;;13.89;100.00;96572.00;5105708;28;20197;-73
2022/09/11 00:32:57;;;;;;;2.10;1.90;;;;;;;13.89;100.00;96579.34;5096589;28;20251;-73
2022/09/11 00:35:25;;;;;;;4.97;1.83;;;;;;;13.87;100.00;96571.44;5095307;28;20196;-73
2022/09/11 00:37:52;;;;;;;5.67;2.17;;;;;;;13.74;100.00;96577.19;5108461;28;20214;-73
2022/09/11 00:40:19;;;;;;;2.80;1.97;;;;;;;13.69;100.00;96577.09;5090809;28;20223;-73
2022/09/11 00:42:52;;;;;;;2.10;1.93;;;;;;;13.68;100.00;96571.91;5096665;28;20208;-73
2022/09/11 00:45:22;;;;;;;4.00;2.30;;;;;;;13.74;100.00;96579.91;5097945;28;20202;-73
2022/09/11 00:47:53;;;;;;;2.30;2.10;;;;;;;13.77;100.00;96575.88;5116772;27;20226;-74
2022/09/11 00:50:23;;;;;;;3.67;2.20;;;;;;;13.77;100.00;96563.13;5094678;27;20212;-73
2022/09/11 00:52:56;;;;;;;2.03;1.87;;;;;;;13.82;100.00;96562.38;5102210;27;20234;-73
2022/09/11 00:55:27;;;;;;;5.10;2.00;;;;;;;13.80;100.00;96569.94;5104615;27;20199;-74
2022/09/11 00:58:00;;;;;;;4.27;1.73;;;;;;;13.81;100.00;96569.69;5101144;27;20227;-73
2022/09/11 01:00:27;;;;;;;2.53;1.60;;;;;;;13.78;100.00;96559.31;5111242;27;20227;-73
2022/09/11 01:02:56;;;;;;;4.00;1.63;;;;;;;13.83;100.00;96566.75;5112392;27;20200;-73
2022/09/11 01:05:27;;;;;;;2.13;1.60;;;;;;;13.80;100.00;96562.63;5113261;27;20202;-73
2022/09/11 01:07:56;;;;;;;2.57;1.50;;;;;;;13.79;100.00;96555.53;5099586;27;20231;-73
2022/09/11 01:10:28;;;;;;;3.67;1.80;;;;;;;13.81;100.00;96550.69;5118516;27;20196;-73
2022/09/11 01:13:05;;;;;;;4.03;1.40;;;;;;;13.81;100.00;96560.72;5114062;27;20307;-73
2022/09/11 01:15:40;;;;;;;2.10;1.63;;;;;;;13.81;100.00;96552.59;5103762;27;20290;-73
2022/09/11 01:18:18;;;;;;;1.63;1.53;;;;;;;13.83;100.00;96556.72;5104907;27;20234;-73
2022/09/11 01:21:11;;;;;;;4.10;1.50;;;;;;;13.86;100.00;96555.41;5106952;28;20200;-73
2022/09/11 01:24:24;;;;;;;4.07;1.60;;;;;;;13.83;100.00;96556.72;5094866;28;20200;-73
2022/09/11 01:27:10;;;;;;;1.70;1.30;;;;;;;13.87;100.00;96554.31;5025976;28;20206;-73
2022/09/11 01:29:42;;;;;;;1.70;1.60;;;;;;;13.82;100.00;96551.53;5013418;28;20218;-73
2022/09/11 01:32:17;;;;;;;1.90;1.57;;;;;;;13.73;100.00;96544.84;5074913;28;20310;-73
2022/09/11 01:34:49;;;;;;;2.70;2.03;;;;;;;13.73;100.00;96542.97;5098993;27;20324;-73
2022/09/11 01:37:25;;;;;;;2.00;1.80;;;;;;;13.74;100.00;96546.50;5096778;27;20302;-73
2022/09/11 01:40:03;;;;;;;1.93;1.70;;;;;;;13.70;100.00;96548.03;5103801;27;20203;-73
2022/09/11 01:42:36;;;;;;;3.77;1.83;;;;;;;13.73;100.00;96545.69;5096143;27;20296;-74
2022/09/11 01:45:07;;;;;;;2.43;1.97;;;;;;;13.71;100.00;96552.41;5100995;28;20281;-73
2022/09/11 01:47:36;;;;;;;4.30;1.90;;;;;;;13.64;100.00;96544.44;5101973;28;20208;-73
2022/09/11 01:50:06;;;;;;;3.03;2.07;;;;;;;13.55;100.00;96543.19;5092988;27;20287;-73
2022/09/11 01:52:37;;;;;;;2.63;1.87;;;;;;;13.51;100.00;96547.47;5096794;27;20224;-73
2022/09/11 01:55:10;;;;;;;6.80;2.10;;;;;;;13.54;100.00;96536.94;5105829;27;20214;-73
2022/09/11 01:57:42;;;;;;;3.60;1.90;;;;;;;13.58;100.00;96535.41;5100214;27;20230;-73
2022/09/11 02:00:13;;;;;;;2.43;1.80;;;;;;;13.59;100.00;96531.63;5095300;27;20207;-73
2022/09/11 02:02:46;;;;;;;3.20;1.67;;;;;;;13.59;100.00;96534.31;5122716;27;20253;-73
2022/09/11 02:05:18;;;;;;;2.20;1.87;;;;;;;13.55;100.00;96529.63;5098835;27;20227;-73
2022/09/11 02:07:52;;;;;;;6.20;2.50;;;;;;;13.49;100.00;96534.16;5111235;27;20208;-73
2022/09/11 02:10:26;;;;;;;3.77;2.00;;;;;;;13.49;100.00;96536.84;5099255;27;20222;-73
2022/09/11 02:12:58;;;;;;;2.13;1.40;;;;;;;13.52;100.00;96528.25;5093151;27;20263;-74
2022/09/11 02:15:33;;;;;;;5.03;1.90;;;;;;;13.56;100.00;96534.81;5105841;27;20224;-73
2022/09/11 02:18:08;;;;;;;2.53;1.70;;;;;;;13.58;100.00;96537.28;5100084;27;20227;-73
2022/09/11 02:20:35;;;;;;;1.87;1.77;;;;;;;13.54;100.00;96536.94;5101988;27;20279;-74
2022/09/11 02:23:02;;;;;;;4.00;2.13;;;;;;;13.51;100.00;96537.44;5098477;27;20298;-73
2022/09/11 02:25:29;;;;;;;4.13;2.03;;;;;;;13.52;100.00;96527.41;5117248;27;20235;-74
2022/09/11 02:27:57;;;;;;;3.17;1.80;;;;;;;13.60;100.00;96535.16;5107951;27;20192;-73
2022/09/11 02:30:26;;;;;;;2.90;1.80;;;;;;;13.56;100.00;96534.81;5107461;27;20318;-73
2022/09/11 02:32:55;;;;;;;3.80;1.67;;;;;;;13.55;100.00;96527.72;5099576;28;20216;-73
2022/09/11 02:35:26;;;;;;;3.93;2.00;;;;;;;13.56;100.00;96523.97;5095202;27;20257;-73
2022/09/11 02:38:04;;;;;;;2.63;1.60;;;;;;;13.59;100.00;96528.91;5115867;27;20191;-74
2022/09/11 02:40:46;;;;;;;3.20;1.70;;;;;;;13.58;100.00;96526.44;5097805;27;20195;-73
2022/09/11 02:43:41;;;;;;;2.00;1.43;;;;;;;13.60;100.00;96518.88;5100161;28;20211;-73
2022/09/11 02:46:35;;;;;;;2.53;1.80;;;;;;;13.64;100.00;96523.56;5095044;28;20216;-73
2022/09/11 02:49:11;;;;;;;4.83;1.93;;;;;;;13.64;100.00;96531.69;5095749;27;20199;-74
2022/09/11 02:51:48;;;;;;;3.27;2.07;;;;;;;13.59;100.00;96542.47;5098221;28;20204;-73
2022/09/11 02:54:24;;;;;;;3.60;2.30;;;;;;;13.51;100.00;96534.72;5106405;27;20248;-73
2022/09/11 02:57:01;;;;;;;5.73;2.20;;;;;;;13.51;100.00;96532.03;5097879;27;20223;-73
2022/09/11 02:59:34;;;;;;;1.93;1.70;;;;;;;13.54;100.00;96545.06;5095701;27;20226;-74
2022/09/11 03:02:03;;;;;;;2.00;1.80;;;;;;;13.53;100.00;96529.03;5095087;27;20208;-73
2022/09/11 03:04:30;;;;;;;2.97;1.90;;;;;;;13.44;100.00;96528.59;5099306;27;20268;-73
2022/09/11 03:06:58;;;;;;;4.43;2.07;;;;;;;13.42;100.00;96532.66;5097856;27;20253;-73
2022/09/11 03:09:25;;;;;;;2.87;2.00;;;;;;;13.43;100.00;96540.56;5101189;27;20199;-73
2022/09/11 03:11:58;;;;;;;3.03;1.83;;;;;;;13.47;100.00;96540.88;5100812;27;20239;-73
2022/09/11 03:14:25;;;;;;;2.93;1.40;;;;;;;13.48;100.00;96540.63;5116953;27;20208;-73
2022/09/11 03:16:52;;;;;;;2.80;1.73;;;;;;;13.46;100.00;96534.63;5099471;27;20244;-74
2022/09/11 03:19:21;;;;;;;3.37;1.87;;;;;;;13.46;100.00;96523.78;5101619;27;20218;-73
2022/09/11 03:21:49;;;;;;;3.10;2.20;;;;;;;13.37;100.00;96530.66;5100911;27;20230;-73
2022/09/11 03:24:16;;;;;;;2.60;1.80;;;;;;;13.42;100.00;96528.06;5107821;27;20195;-73
2022/09/11 03:26:44;;;;;;;2.00;1.80;;;;;;;13.40;100.00;96527.47;5097151;27;20200;-73
2022/09/11 03:29:12;;;;;;;5.13;1.87;;;;;;;13.44;100.00;96531.31;5104719;27;20215;-73
2022/09/11 03:31:39;;;;;;;3.67;1.60;;;;;;;13.47;100.00;96540.88;5099399;28;20232;-73
2022/09/11 03:34:07;;;;;;;3.77;1.77;;;;;;;13.48;100.00;96535.22;5093689;28;20253;-73
2022/09/11 03:36:36;;;;;;;1.50;1.40;;;;;;;13.48;100.00;96540.63;5086097;28;20242;-73
2022/09/11 03:39:04;;;;;;;3.00;1.60;;;;;;;13.50;100.00;96532.25;5103873;28;20191;-73
2022/09/11 03:41:31;;;;;;;4.23;1.50;;;;;;;13.47;100.00;96541.69;5096507;28;20208;-73
2022/09/11 03:43:58;;;;;;;2.80;1.70;;;;;;;13.47;100.00;96536.28;5099558;28;20211;-73
2022/09/11 03:46:26;;;;;;;4.40;1.60;;;;;;;13.43;100.00;96535.13;5095068;28;20203;-73
2022/09/11 03:48:54;;;;;;;4.13;1.80;;;;;;;13.38;100.00;96535.00;5100685;27;20206;-73
2022/09/11 03:51:22;;;;;;;3.53;1.60;;;;;;;13.35;100.00;96532.81;5099035;28;20200;-73
2022/09/11 03:53:50;;;;;;;2.73;1.70;;;;;;;13.34;100.00;96531.16;5102843;28;20351;-73
2022/09/11 03:56:17;;;;;;;2.83;1.83;;;;;;;13.30;100.00;96524.56;5099441;28;20226;-73
2022/09/11 03:58:48;;;;;;;3.37;2.30;;;;;;;13.33;100.00;96526.78;5095550;28;20261;-73
2022/09/11 04:01:18;;;;;;;3.77;1.90;;;;;;;13.32;100.00;96527.88;5099207;27;20203;-73
2022/09/11 04:03:45;;;;;;;3.93;1.80;;;;;;;13.29;100.00;96531.03;5099751;28;20241;-73
2022/09/11 04:06:21;;;;;;;3.30;1.70;;;;;;;13.33;100.00;96534.94;5096853;28;20201;-73
2022/09/11 04:08:50;;;;;;;2.17;1.70;;;;;;;13.33;100.00;96524.09;5110446;28;20261;-73
2022/09/11 04:11:18;;;;;;;2.87;1.90;;;;;;;13.35;100.00;96530.09;5102659;28;20230;-73
2022/09/11 04:13:46;;;;;;;3.53;2.27;;;;;;;13.33;100.00;96534.09;5099962;28;20227;-73
2022/09/11 04:16:17;;;;;;;3.33;1.80;;;;;;;13.36;100.00;96525.47;5100252;27;20207;-73
2022/09/11 04:18:48;;;;;;;3.40;1.73;;;;;;;13.32;100.00;96517.00;5091643;28;20234;-73
2022/09/11 04:21:17;;;;;;;1.63;1.50;;;;;;;13.35;100.00;96515.72;5108083;28;20220;-73
2022/09/11 04:23:53;;;;;;;9.17;1.73;;;;;;;13.35;100.00;96516.53;5100450;27;20224;-73
2022/09/11 04:26:22;;;;;;;3.73;1.60;;;;;;;13.35;100.00;96519.25;5093193;27;20217;-73
2022/09/11 04:28:52;;;;;;;1.73;1.63;;;;;;;13.32;100.00;96527.03;5116171;27;20211;-73
2022/09/11 04:31:21;;;;;;;4.77;1.63;;;;;;;13.32;100.00;96525.16;5102601;27;20227;-73
2022/09/11 04:33:49;;;;;;;2.57;1.60;;;;;;;13.38;100.00;96534.19;5099464;27;20235;-73
2022/09/11 04:36:19;;;;;;;5.00;1.70;;;;;;;13.33;100.00;96521.38;5108830;27;20196;-73
2022/09/11 04:38:47;;;;;;;2.23;1.43;;;;;;;13.33;100.00;96534.94;5100554;27;20281;-73
2022/09/11 04:41:16;;;;;;;2.43;1.90;;;;;;;13.31;100.00;96526.22;5100250;27;20290;-73
2022/09/11 04:43:44;;;;;;;2.90;1.70;;;;;;;13.31;100.00;96523.50;5101648;27;20294;-73
2022/09/11 04:46:14;;;;;;;4.30;1.77;;;;;;;13.33;100.00;96540.34;5097222;27;20206;-73
2022/09/11 04:48:46;;;;;;;2.90;1.70;;;;;;;13.38;100.00;96545.88;5097991;27;20196;-73
2022/09/11 04:51:20;;;;;;;1.67;1.53;;;;;;;13.39;100.00;96547.50;5108562;27;20249;-73
2022/09/11 04:53:48;;;;;;;2.67;1.73;;;;;;;13.33;100.00;96545.78;5101530;27;20280;-73
2022/09/11 04:56:19;;;;;;;4.40;2.20;;;;;;;13.32;100.00;96546.84;5104208;27;20292;-73
2022/09/11 04:58:53;;;;;;;4.03;1.67;;;;;;;13.30;100.00;96545.44;5123965;27;20195;-73
2022/09/11 05:01:23;;;;;;;3.53;1.33;;;;;;;13.32;100.00;96549.56;5104215;27;20295;-73
2022/09/11 05:03:55;;;;;;;4.30;1.60;;;;;;;13.27;100.00;96552.97;5099894;27;20196;-73
2022/09/11 05:06:23;;;;;;;3.03;1.77;;;;;;;13.25;100.00;96549.72;5103116;27;20208;-73
2022/09/11 05:08:50;;;;;;;3.50;1.57;;;;;;;13.27;100.00;96544.84;5098045;27;20203;-73
2022/09/11 05:11:20;;;;;;;5.20;1.70;;;;;;;13.27;100.00;96550.25;5099129;27;20257;-73
2022/09/11 05:13:47;;;;;;;3.27;1.70;;;;;;;13.29;100.00;96544.59;5100980;27;20218;-73
2022/09/11 05:16:17;;;;;;;4.70;1.67;;;;;;;13.34;100.00;96552.84;5104973;28;20204;-73
2022/09/11 05:18:50;;;;;;;2.80;1.60;;;;;;;13.30;100.00;96551.69;5098002;27;20195;-73
2022/09/11 05:21:19;;;;;;;2.47;1.60;;;;;;;13.25;100.00;96557.84;5107400;27;20206;-73
2022/09/11 05:23:49;;;;;;;2.70;1.90;;;;;;;13.29;100.00;96560.88;5098253;27;20196;-73
2022/09/11 05:26:19;;;;;;;5.70;3.00;;;;;;;13.32;100.00;96554.97;5112919;27;20261;-73
2022/09/11 05:28:47;;;;;;;2.20;1.90;;;;;;;13.32;100.00;96560.41;5097179;27;20239;-73
2022/09/11 05:31:16;;;;;;;3.50;1.90;;;;;;;13.32;100.00;96563.13;5091247;28;20208;-73
2022/09/11 05:33:44;;;;;;;4.70;2.20;;;;;;;13.26;100.00;96561.38;5092763;27;20243;-73
2022/09/11 05:36:13;;;;;;;2.10;1.90;;;;;;;13.18;100.00;96564.47;5099395;27;20215;-73
2022/09/11 05:38:40;;;;;;;2.97;2.00;;;;;;;13.19;100.00;96571.53;5094661;27;20203;-73
2022/09/11 05:41:10;;;;;;;4.43;2.00;;;;;;;13.20;100.00;96573.16;5094529;27;20223;-73
2022/09/11 05:43:41;;;;;;;3.00;1.80;;;;;;;13.21;100.00;96574.81;5106768;27;20204;-73
2022/09/11 05:46:12;;;;;;;2.40;2.13;;;;;;;13.25;100.00;96574.13;5099343;27;20200;-73
2022/09/11 05:48:39;;;;;;;3.03;1.70;;;;;;;13.27;100.00;96573.84;5096138;28;20364;-73
2022/09/11 05:51:09;;;;;;;2.33;1.90;;;;;;;13.28;100.00;96578.22;5102021;27;20196;-73
2022/09/11 05:53:37;;;;;;;1.83;1.60;;;;;;;13.32;100.00;96575.84;5095143;28;20220;-73
2022/09/11 05:56:07;;;;;;;2.90;2.00;;;;;;;13.33;100.00;96586.47;5098869;28;20224;-73
2022/09/11 05:58:34;;;;;;;2.93;1.77;;;;;;;13.40;100.00;96581.72;5093980;28;20203;-73
2022/09/11 06:01:08;;;;;;;2.90;1.77;;;;;;;13.43;100.00;96591.25;5091477;27;20211;-73
2022/09/11 06:03:38;;;;;;;2.53;1.90;;;;;;;13.44;100.00;96588.28;5101360;27;20203;-73
2022/09/11 06:06:07;;;;;;;2.07;1.80;;;;;;;13.38;100.00;96586.56;5098260;27;20256;-73
2022/09/11 06:08:35;;;;;;;4.77;1.87;;;;;;;13.40;100.00;96589.84;5097266;27;20299;-74
2022/09/11 06:11:06;;;;;;;2.10;1.90;;;;;;;13.40;100.00;96599.88;5119924;27;20238;-73
2022/09/11 06:13:37;;;;;;;4.70;1.90;;;;;;;13.49;100.00;96595.72;5099122;27;20216;-73
2022/09/11 06:16:07;;;;;;;2.93;1.87;;;;;;;13.54;100.00;96593.91;5106543;27;20200;-73
2022/09/11 06:18:34;;;;;;;2.33;1.80;;;;;;;13.57;100.00;96601.56;5122138;27;20202;-73
2022/09/11 06:21:06;;;;;;;3.87;1.53;;;;;;;13.55;100.00;96587.41;5101432;27;20211;-73
2022/09/11 06:23:39;;;;;;;4.83;1.73;;;;;;;13.56;100.00;96589.06;5103253;27;20218;-73
2022/09/11 06:26:09;;;;;;;6.97;3.40;;;;;;;13.61;100.00;96589.16;5100447;28;20207;-73
2022/09/11 06:28:39;;;;;;;4.03;1.87;;;;;;;13.69;100.00;96584.41;5095460;27;20212;-73
2022/09/11 06:31:11;;;;;;;2.00;1.80;;;;;;;13.73;100.00;96583.69;5105288;27;20207;-73
2022/09/11 06:33:39;;;;;;;3.73;1.80;;;;;;;13.69;100.00;96581.72;5095954;28;20215;-73
2022/09/11 06:36:09;;;;;;;3.23;2.00;;;;;;;13.60;100.00;96592.97;5096643;27;20206;-73
2022/09/11 06:38:37;;;;;;;1.83;1.73;;;;;;;13.63;100.00;96592.44;5093862;28;20219;-73
2022/09/11 06:41:07;;;;;;;2.40;2.07;;;;;;;13.74;100.00;96592.63;5098554;28;20212;-74
2022/09/11 06:43:36;;;;;;;2.37;2.00;;;;;;;13.82;100.00;96601.22;5101421;27;20295;-74
2022/09/11 06:46:04;;;;;;;3.37;1.70;;;;;;;13.84;100.00;96606.41;5105863;27;20195;-74
2022/09/11 06:48:34;;;;;;;3.80;1.60;;;;;;;13.93;100.00;96610.38;5096768;28;20292;-73
2022/09/11 06:51:05;;;;;;;2.33;1.50;;;;;;;14.01;100.00;96613.50;5095586;27;20207;-74
2022/09/11 06:53:33;;;;;;;3.23;1.87;;;;;;;14.05;100.00;96613.81;5102368;28;20224;-74
2022/09/11 06:56:07;;;;;;;2.40;1.40;;;;;;;14.13;100.00;96621.56;5091183;28;20239;-74
2022/09/11 06:58:35;;;;;;;2.63;1.50;;;;;;;14.22;100.00;96630.13;5100839;27;20208;-74
2022/09/11 07:01:04;;;;;;;2.63;1.40;;;;;;;14.30;100.00;96621.56;5095247;27;20188;-74
2022/09/11 07:03:34;;;;;;;3.47;1.60;;;;;;;14.29;100.00;96628.09;5093183;28;20282;-74
2022/09/11 07:06:04;;;;;;;3.53;1.40;;;;;;;14.28;100.00;96629.97;5096068;27;20200;-73
2022/09/11 07:08:31;;;;;;;1.93;1.60;;;;;;;14.33;100.00;96630.06;5102785;27;20199;-74
2022/09/11 07:11:03;;;;;;;4.07;1.60;;;;;;;14.45;100.00;96634.63;5096906;28;20243;-75
2022/09/11 07:13:33;;;;;;;3.27;1.50;;;;;;;14.50;100.00;96634.69;5089269;28;20240;-74
2022/09/11 07:16:03;;;;;;;1.57;1.40;;;;;;;14.53;100.00;96639.63;5095566;28;20220;-74
2022/09/11 07:18:35;;;;;;;2.33;1.60;;;;;;;14.54;100.00;96639.38;5100737;28;20201;-74
2022/09/11 07:21:06;;;;;;;1.93;1.50;;;;;;;14.52;100.00;96635.25;5095476;28;20196;-73
2022/09/11 07:23:35;;;;;;;2.23;1.40;;;;;;;14.49;100.00;96644.72;5092042;28;20209;-74
2022/09/11 07:26:04;;;;;;;3.10;1.47;;;;;;;14.58;100.00;96647.84;5089202;27;20196;-73
2022/09/11 07:28:33;;;;;;;2.60;1.27;;;;;;;14.60;100.00;96646.53;5089662;28;20211;-73
2022/09/11 07:31:10;;;;;;;3.50;1.67;;;;;;;14.64;100.00;96646.84;5091791;28;20211;-73
2022/09/11 07:33:41;;;;;;;2.80;1.40;;;;;;;14.71;100.00;96647.53;5107564;27;20312;-73
2022/09/11 07:36:10;;;;;;;2.43;1.40;;;;;;;14.73;100.00;96648.06;5094883;28;20200;-74
2022/09/11 07:38:41;;;;;;;2.53;1.40;;;;;;;14.76;100.00;96639.44;5092204;28;20202;-74
2022/09/11 07:41:09;;;;;;;2.17;1.73;;;;;;;14.85;100.00;96650.72;5091981;28;20232;-74
2022/09/11 07:43:37;;;;;;;2.50;2.30;;;;;;;14.95;100.00;96642.72;5096140;28;20231;-74
2022/09/11 07:46:05;;;;;;;4.10;1.93;;;;;;;15.02;100.00;96644.16;5096454;28;20219;-73
2022/09/11 07:48:34;;;;;;;1.50;1.30;;;;;;;15.00;100.00;96649.03;5099131;28;20231;-73
2022/09/11 07:51:04;;;;;;;5.60;1.80;;;;;;;15.07;100.00;96648.84;5093612;28;20232;-73
2022/09/11 07:53:33;;;;;;;3.43;1.63;;;;;;;15.09;100.00;96644.81;5090695;28;20301;-73
2022/09/11 07:56:05;;;;;;;5.67;1.63;;;;;;;15.12;100.00;96649.75;5097958;28;20220;-73
2022/09/11 07:58:33;;;;;;;2.27;1.70;;;;;;;15.10;100.00;96641.00;5088348;28;20251;-73
2022/09/11 08:01:02;;;;;;;3.13;2.03;;;;;;;15.14;100.00;96642.13;5101996;28;20196;-74
2022/09/11 08:03:30;;;;;;;6.80;1.60;;;;;;;15.13;100.00;96636.97;5095667;28;20272;-73
2022/09/11 08:05:58;;;;;;;2.73;1.50;;;;;;;15.08;100.00;96645.03;5094671;28;20295;-73
2022/09/11 08:08:27;;;;;;;2.60;1.97;;;;;;;15.19;100.00;96646.00;5106236;28;20200;-74
2022/09/11 08:10:55;;;;;;;2.50;1.67;;;;;;;15.30;100.00;96642.38;5094428;28;20231;-73
2022/09/11 08:13:22;;;;;;;1.50;1.40;;;;;;;15.39;100.00;96646.28;5101778;28;20204;-73
2022/09/11 08:15:50;;;;;;;1.67;1.57;;;;;;;15.40;100.00;96639.75;5096143;28;20205;-74
2022/09/11 08:18:19;;;;;;;4.87;1.60;;;;;;;15.49;100.00;96640.94;5103523;28;20192;-73
2022/09/11 08:20:46;;;;;;;4.50;1.50;;;;;;;15.55;100.00;96642.69;5098417;28;20205;-73
2022/09/11 08:23:14;;;;;;;4.03;1.50;;;;;;;15.63;100.00;96642.25;5111475;27;20228;-74
2022/09/11 08:25:43;;;;;;;3.40;1.40;;;;;;;15.88;100.00;96628.91;5095278;27;20213;-73
2022/09/11 08:28:11;;;;;;;2.23;1.53;;;;;;;15.98;100.00;96633.63;5092057;27;20266;-74
2022/09/11 08:30:38;;;;;;;1.93;1.40;;;;;;;16.01;100.00;96621.38;5094559;28;20246;-74
2022/09/11 08:33:07;;;;;;;1.87;1.40;;;;;;;16.36;100.00;96624.44;5099980;28;20223;-74
2022/09/11 08:35:36;;;;;;;1.67;1.40;;;;;;;16.67;100.00;96622.81;5095562;28;20228;-73
2022/09/11 08:38:03;;;;;;;3.67;1.80;;;;;;;16.98;100.00;96624.66;5101919;28;20205;-74
2022/09/11 08:40:31;;;;;;;3.63;1.70;;;;;;;17.28;100.00;96618.50;5106716;28;20201;-74
2022/09/11 08:43:03;;;;;;;2.10;1.57;;;;;;;17.50;100.00;96622.97;5098208;28;20205;-74
2022/09/11 08:45:35;;;;;;;1.77;1.50;;;;;;;17.58;100.00;96614.28;5091359;28;20224;-74
2022/09/11 08:48:05;;;;;;;1.73;1.20;;;;;;;17.57;100.00;96616.19;5090430;28;20209;-74
2022/09/11 08:50:38;;;;;;;3.50;1.83;;;;;;;17.67;100.00;96609.97;5090673;28;20305;-74
2022/09/11 08:53:14;;;;;;;1.20;1.10;;;;;;;17.83;100.00;96606.19;5094250;28;20272;-74
2022/09/11 08:55:45;;;;;;;3.77;1.50;;;;;;;18.14;100.00;96612.50;5103611;27;20270;-74
2022/09/11 08:58:29;;;;;;;2.73;1.40;;;;;;;17.98;100.00;96603.47;5092172;28;20292;-74
2022/09/11 09:01:07;;;;;;;3.67;1.53;;;;;;;18.25;100.00;96596.94;5099365;28;20239;-74
2022/09/11 09:03:53;;;;;;;2.77;1.37;;;;;;;18.48;100.00;96604.59;5100433;28;20211;-74
2022/09/11 09:06:42;;;;;;;2.03;1.20;;;;;;;18.40;100.00;96594.19;5101431;28;20204;-74
2022/09/11 09:09:17;;;;;;;1.27;1.10;;;;;;;18.63;100.00;96598.34;5099104;28;20200;-74
2022/09/11 09:11:55;;;;;;;1.20;1.10;;;;;;;18.64;100.00;96595.31;5096140;28;20239;-74
2022/09/11 09:14:39;;;;;;;2.77;1.40;;;;;;;18.73;100.00;96601.88;5096368;27;20331;-74
2022/09/11 09:17:08;;;;;;;1.33;1.08;;;;;;;18.80;100.00;96596.91;5088710;28;20201;-74
2022/09/11 09:19:42;;;;;;;1.20;1.10;;;;;;;18.97;100.00;96601.28;5104400;28;20474;-74
2022/09/11 09:22:15;;;;;;;1.20;1.05;;;;;;;19.24;100.00;96596.25;5102912;28;20200;-74
2022/09/11 09:24:48;;;;;;;2.58;1.17;;;;;;;19.39;100.00;96596.22;5093212;28;20211;-74
2022/09/11 09:27:20;;;;;;;2.10;1.48;;;;;;;19.31;95.80;96594.03;5102780;28;20219;-74
2022/09/11 09:29:53;;;;;;;1.60;1.10;;;;;;;19.19;91.71;96597.13;5096843;28;20208;-74
2022/09/11 09:32:25;;;;;;;2.65;1.10;;;;;;;19.43;97.76;96580.84;5092185;28;20203;-74
2022/09/11 09:34:57;;;;;;;1.98;1.10;;;;;;;19.65;91.89;96573.09;5104152;28;20309;-74
2022/09/11 09:37:25;;;;;;;3.17;1.17;;;;;;;20.08;92.92;96586.25;5090124;28;20204;-74
2022/09/11 09:39:53;;;;;;;1.20;1.10;;;;;;;20.13;88.69;96573.34;5104470;28;20200;-74
2022/09/11 09:42:38;;;;;;;1.38;1.10;;;;;;;20.29;91.18;96582.28;5098778;28;20292;-74
2022/09/11 09:45:35;;;;;;;1.70;1.00;;;;;;;20.54;87.37;96575.78;5100068;28;20219;-74
2022/09/11 09:48:03;;;;;;;1.90;1.20;;;;;;;20.74;82.99;96568.19;5093537;28;20220;-74
2022/09/11 09:50:33;;;;;;;4.20;1.20;;;;;;;20.90;82.86;96570.78;5096409;28;20208;-74
2022/09/11 09:53:05;;;;;;;1.63;1.02;;;;;;;21.09;80.44;96574.44;5093798;28;20208;-74
2022/09/11 09:55:34;;;;;;;1.00;0.88;;;;;;;21.10;79.26;96565.88;5098092;28;20231;-74
2022/09/11 09:58:01;;;;;;;1.88;1.30;;;;;;;20.96;80.41;96559.44;5103882;28;20224;-74
2022/09/11 10:00:31;;;;;;;1.77;1.20;;;;;;;20.87;81.66;96563.94;5096783;28;20209;-74
2022/09/11 10:02:58;;;;;;;1.20;1.10;;;;;;;20.96;81.57;96542.16;5091855;28;20208;-74
2022/09/11 10:05:28;;;;;;;1.65;1.08;;;;;;;20.81;82.12;96542.34;5089763;28;20204;-74
2022/09/11 10:07:58;;;;;;;1.85;1.10;;;;;;;21.01;79.34;96533.88;5101312;28;20213;-75
2022/09/11 10:10:28;;;;;;;2.72;1.00;;;;;;;21.19;74.60;96533.13;5095515;27;20197;-74
2022/09/11 10:12:58;;;;;;;1.98;0.90;;;;;;;21.18;75.49;96530.69;5107770;27;20204;-74
2022/09/11 10:15:26;;;;;;;2.10;1.10;;;;;;;21.36;74.77;96518.91;5101123;27;20207;-74
2022/09/11 10:18:20;;;;;;;1.73;1.02;;;;;;;21.51;75.65;96521.47;5094387;28;20203;-74
2022/09/11 10:20:48;;;;;;;1.13;0.95;;;;;;;21.81;72.00;96515.53;5098974;27;20211;-74
2022/09/11 10:23:24;;;;;;;1.10;0.80;;;;;;;21.94;68.48;96515.91;5111209;27;20203;-74
2022/09/11 10:25:52;;;;;;;3.13;1.52;;;;;;;22.18;69.03;96513.91;5107065;27;20201;-74
2022/09/11 10:28:27;;;;;;;1.88;1.30;;;;;;;22.07;69.96;96507.75;5110342;27;20200;-74
2022/09/11 10:30:58;;;;;;;2.50;1.20;;;;;;;22.19;71.64;96508.09;5094170;28;20203;-74
2022/09/11 10:33:29;;;;;;;1.77;1.27;;;;;;;22.31;72.18;96504.03;5097149;27;20438;-74
2022/09/11 10:36:00;;;;;;;1.55;1.17;;;;;;;22.45;70.59;96505.75;5112714;27;20215;-74
2022/09/11 10:38:32;;;;;;;1.88;1.00;;;;;;;22.51;69.57;96507.28;5101590;27;20290;-74
2022/09/11 10:41:09;;;;;;;1.73;1.10;;;;;;;22.72;68.69;96507.69;5100064;28;20217;-75
2022/09/11 10:43:43;;;;;;;1.40;1.00;;;;;;;22.82;67.97;96506.72;5097701;27;20210;-74
2022/09/11 10:46:38;;;;;;;1.00;0.82;;;;;;;22.79;65.33;96512.84;5107103;27;20198;-74
2022/09/11 10:49:16;;;;;;;2.58;1.30;;;;;;;22.87;65.78;96512.16;5058721;28;20207;-75
2022/09/11 10:51:59;;;;;;;2.28;1.30;;;;;;;22.85;65.41;96497.88;5106442;27;20358;-74
2022/09/11 10:54:43;;;;;;;3.15;1.08;;;;;;;22.77;65.11;96504.09;5114048;27;20204;-74
2022/09/11 10:57:16;;;;;;;2.85;1.00;;;;;;;22.77;68.11;96499.41;5109015;27;20243;-74
2022/09/11 10:59:54;;;;;;;3.80;1.05;;;;;;;22.93;65.48;96491.66;5111165;27;20211;-74
2022/09/11 11:02:28;;;;;;;3.45;1.00;;;;;;;23.13;65.24;96495.94;5099156;27;20252;-75
2022/09/11 11:04:56;;;;;;;2.05;1.10;;;;;;;23.22;64.41;96494.88;5092641;27;20214;-74
2022/09/11 11:07:56;;;;;;;2.30;1.00;;;;;;;23.12;62.63;96486.88;5103566;27;20192;-75
2022/09/11 11:10:35;;;;;;;1.02;0.90;;;;;;;23.21;60.41;96489.72;5110811;27;20264;-74
2022/09/11 11:13:15;;;;;;;2.38;1.33;;;;;;;23.00;63.18;96492.06;5100378;28;20302;-75
2022/09/11 11:16:00;;;;;;;3.70;1.13;;;;;;;23.09;59.36;96490.22;5100906;28;20231;-75
2022/09/11 11:18:51;;;;;;;1.77;0.90;;;;;;;23.26;60.65;96484.91;5099369;27;20207;-74
2022/09/11 11:21:31;;;;;;;1.38;0.95;;;;;;;23.50;59.99;96483.88;5096514;27;20240;-75
2022/09/11 11:24:20;;;;;;;1.70;1.10;;;;;;;23.70;59.72;96472.41;5111256;27;20208;-74
2022/09/11 11:27:03;;;;;;;1.48;0.70;;;;;;;23.52;58.29;96478.88;5116990;27;20215;-75
2022/09/11 11:29:50;;;;;;;2.35;0.90;;;;;;;23.80;59.22;96482.38;5105153;27;20215;-75
2022/09/11 11:32:36;;;;;;;1.58;0.90;;;;;;;23.62;57.73;96470.38;5110020;27;20230;-75
2022/09/11 11:35:25;;;;;;;1.67;0.88;;;;;;;23.56;57.12;96466.91;5097514;28;20222;-75
2022/09/11 11:38:01;;;;;;;1.75;0.88;;;;;;;23.65;57.26;96465.03;5112835;28;20208;-74
2022/09/11 11:40:35;;;;;;;2.35;1.00;;;;;;;23.70;57.33;96466.88;5089544;28;20203;-75
2022/09/11 11:43:07;;;;;;;2.25;0.80;;;;;;;23.70;57.72;96469.63;5106341;28;20216;-74
2022/09/11 11:45:39;;;;;;;0.98;0.80;;;;;;;23.62;55.66;96462.94;5113158;28;20196;-74
2022/09/11 11:48:24;;;;;;;1.50;1.10;;;;;;;23.71;56.35;96463.81;5107533;28;20268;-74